createdAt,value
2023-01-20T00:01:48.378Z,55.90
2023-01-20T00:04:19.411Z,55.83
2023-01-20T00:06:47.784Z,54.77
2023-01-20T00:09:17.817Z,54.07
2023-01-20T00:11:45.794Z,52.27
2023-01-20T00:14:13.948Z,52.73
2023-01-20T00:16:41.524Z,56.27
2023-01-20T00:19:13.515Z,55.33
2023-01-20T00:21:41.496Z,56.33
2023-01-20T00:24:08.990Z,53.60
2023-01-20T00:26:36.393Z,55.37
2023-01-20T00:29:03.822Z,55.80
2023-01-20T00:31:32.711Z,52.60
2023-01-20T00:34:01.293Z,50.37
2023-01-20T00:36:31.742Z,50.60
2023-01-20T00:38:59.764Z,48.67
2023-01-20T00:41:27.286Z,49.53
2023-01-20T00:43:54.768Z,50.63
2023-01-20T00:46:23.329Z,51.57
2023-01-20T00:48:50.783Z,50.57
2023-01-20T00:51:18.303Z,52.40
2023-01-20T00:53:45.845Z,49.97
2023-01-20T00:56:13.272Z,50.77
2023-01-20T00:58:44.403Z,47.87
2023-01-20T01:01:13.180Z,51.00
2023-01-20T01:03:40.795Z,49.87
2023-01-20T01:06:16.981Z,46.20
2023-01-20T01:08:45.387Z,44.57
2023-01-20T01:11:13.986Z,43.60
2023-01-20T01:13:41.719Z,45.30
2023-01-20T01:16:15.165Z,45.57
2023-01-20T01:18:43.503Z,44.60
2023-01-20T01:21:14.904Z,44.33
2023-01-20T01:23:43.682Z,45.50
2023-01-20T01:26:11.542Z,46.80
2023-01-20T01:28:39.577Z,45.63
2023-01-20T01:31:08.718Z,45.67
2023-01-20T01:33:36.822Z,45.30
2023-01-20T01:36:05.945Z,44.23
2023-01-20T01:38:33.448Z,46.83
2023-01-20T01:41:01.532Z,45.93
2023-01-20T01:43:32.462Z,47.60
2023-01-20T01:46:00.299Z,48.57
2023-01-20T01:48:45.896Z,46.03
2023-01-20T01:51:20.837Z,44.73
2023-01-20T01:54:17.782Z,44.13
2023-01-20T01:56:46.773Z,43.60
2023-01-20T01:59:15.805Z,44.40
2023-01-20T02:01:50.133Z,43.33
2023-01-20T02:04:24.352Z,43.97
2023-01-20T02:06:56.773Z,43.73
2023-01-20T02:09:27.022Z,41.43
2023-01-20T02:12:03.615Z,43.23
2023-01-20T02:14:54.709Z,42.40
2023-01-20T02:17:54.750Z,43.07
2023-01-20T02:21:03.917Z,42.70
2023-01-20T02:23:47.225Z,43.33
2023-01-20T02:26:52.614Z,43.80
2023-01-20T02:30:03.774Z,45.03
2023-01-20T02:33:09.506Z,43.63
2023-01-20T02:35:51.698Z,43.50
2023-01-20T02:38:19.086Z,41.90
2023-01-20T02:41:09.554Z,40.87
2023-01-20T02:44:04.556Z,42.90
2023-01-20T02:46:58.792Z,39.23
2023-01-20T02:49:56.334Z,41.60
2023-01-20T02:52:29.872Z,40.97
2023-01-20T02:55:04.645Z,41.13
2023-01-20T02:57:42.460Z,40.10
2023-01-20T03:00:24.105Z,40.57
2023-01-20T03:02:54.536Z,39.93
2023-01-20T03:05:30.808Z,40.33
2023-01-20T03:08:01.782Z,39.73
2023-01-20T03:10:32.718Z,42.17
2023-01-20T03:13:21.676Z,39.37
2023-01-20T03:15:59.537Z,38.20
2023-01-20T03:18:29.685Z,38.27
2023-01-20T03:21:00.045Z,39.00
2023-01-20T03:23:32.341Z,37.40
2023-01-20T03:26:01.193Z,37.27
2023-01-20T03:28:28.689Z,36.30
2023-01-20T03:30:58.488Z,37.93
2023-01-20T03:33:27.222Z,41.47
2023-01-20T03:35:55.554Z,40.20
2023-01-20T03:38:23.139Z,40.20
2023-01-20T03:41:38.091Z,38.63
2023-01-20T03:44:19.708Z,37.67
2023-01-20T03:47:12.201Z,38.67
2023-01-20T03:50:01.025Z,37.33
2023-01-20T03:52:57.668Z,38.43
2023-01-20T03:55:35.913Z,35.83
2023-01-20T03:58:12.162Z,33.53
2023-01-20T04:00:44.890Z,31.77
2023-01-20T04:03:25.559Z,31.37
2023-01-20T04:05:54.130Z,30.70
2023-01-20T04:08:26.930Z,30.67
2023-01-20T04:10:57.085Z,30.80
2023-01-20T04:13:24.615Z,29.70
2023-01-20T04:15:52.274Z,30.10
2023-01-20T04:18:24.634Z,31.47
2023-01-20T04:21:04.674Z,33.30
2023-01-20T04:23:39.667Z,34.87
2023-01-20T04:26:07.095Z,33.80
2023-01-20T04:28:34.523Z,32.27
2023-01-20T04:31:02.031Z,32.10
2023-01-20T04:33:29.519Z,33.83
2023-01-20T04:35:56.909Z,32.37
2023-01-20T04:38:24.350Z,39.00
2023-01-20T04:40:52.534Z,36.17
2023-01-20T04:43:19.990Z,39.93
2023-01-20T04:45:47.435Z,40.13
2023-01-20T04:48:14.928Z,41.97
2023-01-20T04:50:44.031Z,42.27
2023-01-20T04:53:16.970Z,39.67
2023-01-20T04:55:44.386Z,40.50
2023-01-20T04:58:12.081Z,52.27
2023-01-20T05:00:39.489Z,48.10
2023-01-20T05:03:07.035Z,76.33
2023-01-20T05:05:34.685Z,53.03
2023-01-20T05:08:04.851Z,45.67
2023-01-20T05:10:33.726Z,50.80
2023-01-20T05:13:01.929Z,46.27
2023-01-20T05:15:29.430Z,60.07
2023-01-20T05:17:56.962Z,56.03
2023-01-20T05:20:24.424Z,47.40
2023-01-20T05:22:51.866Z,46.13
2023-01-20T05:25:19.340Z,46.73
2023-01-20T05:27:46.741Z,46.30
2023-01-20T05:30:14.551Z,53.00
2023-01-20T05:32:42.197Z,54.63
2023-01-20T05:35:10.170Z,54.47
2023-01-20T05:37:37.595Z,51.63
2023-01-20T05:40:05.755Z,50.80
2023-01-20T05:42:33.617Z,49.53
2023-01-20T05:45:01.071Z,50.43
2023-01-20T05:47:29.086Z,48.97
2023-01-20T05:49:56.498Z,47.17
2023-01-20T05:52:23.942Z,46.87
2023-01-20T05:54:51.381Z,47.40
2023-01-20T05:57:18.834Z,46.90
2023-01-20T05:59:47.902Z,46.50
2023-01-20T06:02:18.855Z,45.53
2023-01-20T06:04:47.268Z,46.63
2023-01-20T06:07:15.556Z,47.17
2023-01-20T06:09:42.993Z,48.13
2023-01-20T06:12:10.465Z,47.40
2023-01-20T06:14:37.859Z,45.70
2023-01-20T06:17:05.300Z,47.73
2023-01-20T06:19:32.765Z,48.53
2023-01-20T06:22:00.281Z,48.50
2023-01-20T06:24:27.704Z,49.37
2023-01-20T06:26:55.496Z,52.63
2023-01-20T06:29:23.129Z,51.97
2023-01-20T06:31:50.604Z,49.73
2023-01-20T06:34:18.061Z,50.60
2023-01-20T06:36:45.485Z,49.93
2023-01-20T06:39:12.963Z,50.07
2023-01-20T06:41:40.431Z,48.30
2023-01-20T06:44:07.870Z,46.97
2023-01-20T06:46:35.352Z,47.50
2023-01-20T06:49:02.883Z,51.33
2023-01-20T06:51:31.386Z,54.13
2023-01-20T06:53:58.951Z,46.00
2023-01-20T06:56:26.421Z,49.80
2023-01-20T06:58:53.897Z,45.07
2023-01-20T07:01:25.251Z,48.40
2023-01-20T07:03:53.279Z,53.37
2023-01-20T07:06:38.517Z,49.90
2023-01-20T07:09:09.890Z,42.87
2023-01-20T07:11:37.645Z,43.10
2023-01-20T07:14:06.579Z,43.53
2023-01-20T07:16:34.982Z,43.40
2023-01-20T07:19:02.607Z,43.67
2023-01-20T07:21:30.138Z,43.23
2023-01-20T07:24:01.775Z,45.63
2023-01-20T07:26:30.352Z,45.07
2023-01-20T07:29:01.345Z,47.43
2023-01-20T07:31:31.756Z,50.00
2023-01-20T07:33:59.335Z,48.80
2023-01-20T07:36:27.588Z,53.03
2023-01-20T07:38:55.152Z,52.87
2023-01-20T07:41:23.261Z,52.63
2023-01-20T07:43:53.111Z,54.03
2023-01-20T07:46:21.395Z,52.47
2023-01-20T07:48:48.959Z,41.97
2023-01-20T07:51:18.159Z,46.60
2023-01-20T07:53:51.125Z,45.37
2023-01-20T07:56:24.597Z,46.10
2023-01-20T07:58:53.886Z,52.47
2023-01-20T08:01:28.703Z,77.83
2023-01-20T08:03:57.010Z,52.67
2023-01-20T08:06:26.239Z,64.10
2023-01-20T08:08:55.413Z,57.20
2023-01-20T08:11:24.066Z,49.33
2023-01-20T08:13:51.588Z,51.57
2023-01-20T08:16:19.670Z,55.00
2023-01-20T08:18:47.892Z,51.80
2023-01-20T08:21:31.299Z,46.27
2023-01-20T08:24:01.949Z,41.50
2023-01-20T08:26:31.323Z,40.40
2023-01-20T08:29:08.908Z,41.03
2023-01-20T08:31:37.860Z,39.90
2023-01-20T08:34:06.044Z,41.43
2023-01-20T08:36:37.084Z,40.23
2023-01-20T08:39:07.760Z,39.63
2023-01-20T08:41:38.141Z,34.80
2023-01-20T08:44:08.308Z,35.30
2023-01-20T08:46:40.474Z,34.97
2023-01-20T08:49:13.215Z,32.07
2023-01-20T08:51:41.849Z,44.13
2023-01-20T08:54:09.679Z,37.70
2023-01-20T08:56:37.297Z,38.13
2023-01-20T08:59:04.841Z,42.57
2023-01-20T09:01:36.417Z,41.07
2023-01-20T09:04:07.009Z,39.80
2023-01-20T09:06:41.215Z,39.07
2023-01-20T09:09:08.791Z,37.13
2023-01-20T09:11:36.426Z,35.73
2023-01-20T09:14:03.933Z,33.00
2023-01-20T09:16:31.414Z,38.70
2023-01-20T09:18:58.813Z,39.07
2023-01-20T09:21:26.203Z,36.37
2023-01-20T09:23:53.620Z,32.67
2023-01-20T09:26:34.988Z,34.33
2023-01-20T09:29:09.937Z,35.23
2023-01-20T09:31:49.948Z,37.17
2023-01-20T09:34:22.030Z,35.70
2023-01-20T09:36:58.165Z,39.03
2023-01-20T09:39:44.347Z,37.33
2023-01-20T09:42:35.692Z,36.50
2023-01-20T09:45:52.520Z,35.40
2023-01-20T09:49:32.495Z,32.30
2023-01-20T09:52:56.232Z,35.17
2023-01-20T09:55:52.406Z,34.13
2023-01-20T09:59:11.019Z,32.97
2023-01-20T10:01:51.856Z,34.50
2023-01-20T10:04:31.197Z,35.40
2023-01-20T10:07:24.365Z,35.63
2023-01-20T10:10:12.578Z,36.37
2023-01-20T10:13:20.850Z,36.77
2023-01-20T10:16:03.235Z,36.13
2023-01-20T10:18:54.361Z,34.67
2023-01-20T10:21:40.880Z,34.73
2023-01-20T10:24:17.011Z,32.70
2023-01-20T10:27:01.630Z,32.73
2023-01-20T10:29:44.138Z,29.77
2023-01-20T10:32:33.525Z,30.43
2023-01-20T10:35:19.360Z,37.27
2023-01-20T10:37:46.964Z,31.17
2023-01-20T10:40:57.028Z,30.57
2023-01-20T10:43:24.668Z,30.67
2023-01-20T10:46:30.496Z,28.13
2023-01-20T10:49:15.637Z,24.10
2023-01-20T10:52:00.061Z,23.50
2023-01-20T10:54:47.143Z,14.77
2023-01-20T10:57:16.407Z,15.27
2023-01-20T10:59:54.753Z,15.50
2023-01-20T11:02:35.134Z,16.20
2023-01-20T11:05:26.434Z,16.20
2023-01-20T11:07:54.894Z,16.10
2023-01-20T11:10:28.516Z,16.50
2023-01-20T11:12:59.748Z,15.93
2023-01-20T11:15:35.085Z,34.17
2023-01-20T11:18:14.812Z,33.33
2023-01-20T11:20:56.765Z,30.50
2023-01-20T11:23:38.907Z,32.37
2023-01-20T11:26:29.659Z,32.30
2023-01-20T11:29:24.352Z,33.57
2023-01-20T11:31:56.393Z,33.73
2023-01-20T11:34:26.809Z,29.27
2023-01-20T11:37:06.555Z,31.00
2023-01-20T11:39:58.114Z,31.80
2023-01-20T11:42:28.042Z,32.70
2023-01-20T11:45:15.279Z,32.87
2023-01-20T11:48:06.480Z,33.07
2023-01-20T11:50:46.272Z,34.97
2023-01-20T11:53:23.741Z,35.87
2023-01-20T11:55:55.517Z,35.37
2023-01-20T11:58:27.787Z,36.10
2023-01-20T12:01:07.488Z,36.50
2023-01-20T12:04:08.635Z,35.23
2023-01-20T12:06:54.226Z,35.97
2023-01-20T12:09:30.074Z,36.87
2023-01-20T12:12:33.687Z,36.80
2023-01-20T12:15:16.151Z,34.17
2023-01-20T12:17:54.513Z,29.07
2023-01-20T12:20:54.634Z,31.13
2023-01-20T12:23:55.667Z,30.27
2023-01-20T12:26:25.036Z,31.80
2023-01-20T12:29:37.319Z,31.47
2023-01-20T12:32:04.962Z,32.13
2023-01-20T12:34:32.480Z,33.13
2023-01-20T12:37:20.960Z,24.63
2023-01-20T12:40:22.779Z,19.87
2023-01-20T12:43:23.418Z,19.70
2023-01-20T12:46:26.593Z,17.50
2023-01-20T12:49:21.691Z,17.93
2023-01-20T12:52:07.536Z,17.47
2023-01-20T12:55:12.287Z,18.37
2023-01-20T12:58:08.508Z,19.43
2023-01-20T13:01:16.971Z,19.80
2023-01-20T13:04:28.676Z,18.97
2023-01-20T13:07:13.489Z,18.73
2023-01-20T13:10:08.193Z,18.50
2023-01-20T13:12:44.815Z,18.57
2023-01-20T13:15:39.654Z,17.53
2023-01-20T13:18:40.462Z,17.77
2023-01-20T13:21:18.928Z,17.50
2023-01-20T13:23:47.768Z,17.57
2023-01-20T13:26:16.669Z,18.57
2023-01-20T13:28:56.090Z,17.83
2023-01-20T13:31:53.675Z,18.23
2023-01-20T13:34:23.657Z,17.30
2023-01-20T13:37:03.043Z,18.87
2023-01-20T13:39:30.378Z,21.00
2023-01-20T13:41:57.830Z,20.37
2023-01-20T13:44:42.191Z,19.63
2023-01-20T13:47:11.661Z,20.23
2023-01-20T13:49:50.986Z,20.20
2023-01-20T13:52:53.797Z,20.60
2023-01-20T13:55:45.560Z,20.50
2023-01-20T13:58:31.845Z,19.20
2023-01-20T14:01:04.909Z,20.40
2023-01-20T14:03:38.590Z,21.80
2023-01-20T14:06:12.228Z,21.30
2023-01-20T14:08:48.920Z,21.57
2023-01-20T14:11:27.583Z,22.43
2023-01-20T14:13:59.441Z,20.20
2023-01-20T14:16:35.166Z,19.43
2023-01-20T14:19:27.672Z,19.83
2023-01-20T14:21:58.622Z,20.10
2023-01-20T14:24:46.291Z,19.80
2023-01-20T14:27:29.762Z,18.83
2023-01-20T14:30:15.590Z,18.30
2023-01-20T14:32:43.366Z,17.33
2023-01-20T14:35:35.809Z,17.10
2023-01-20T14:38:03.288Z,19.70
2023-01-20T14:40:35.432Z,19.73
2023-01-20T14:43:16.418Z,21.20
2023-01-20T14:45:48.879Z,23.83
2023-01-20T14:48:32.490Z,21.23
2023-01-20T14:51:02.854Z,22.47
2023-01-20T14:53:30.288Z,21.03
2023-01-20T14:56:04.685Z,20.43
2023-01-20T14:58:32.319Z,21.17
2023-01-20T15:01:06.330Z,20.53
2023-01-20T15:03:34.225Z,21.90
2023-01-20T15:06:10.546Z,23.27
2023-01-20T15:08:37.913Z,22.90
2023-01-20T15:11:20.774Z,23.53
2023-01-20T15:14:05.008Z,23.27
2023-01-20T15:16:49.629Z,24.97
2023-01-20T15:19:29.528Z,22.20
2023-01-20T15:22:17.795Z,21.70
2023-01-20T15:24:47.699Z,21.73
2023-01-20T15:27:31.798Z,22.90
2023-01-20T15:30:14.173Z,22.30
2023-01-20T15:32:41.781Z,22.43
2023-01-20T15:35:16.863Z,23.27
2023-01-20T15:37:45.059Z,25.30
2023-01-20T15:40:23.771Z,27.93
2023-01-20T15:42:53.595Z,27.37
2023-01-20T15:45:21.276Z,26.70
2023-01-20T15:47:49.987Z,26.23
2023-01-20T15:50:22.345Z,28.70
2023-01-20T15:52:50.378Z,27.90
2023-01-20T15:55:19.463Z,29.43
2023-01-20T15:57:52.182Z,30.63
2023-01-20T16:00:23.407Z,35.93
2023-01-20T16:02:51.279Z,32.90
2023-01-20T16:05:18.695Z,34.93
2023-01-20T16:07:47.935Z,35.37
2023-01-20T16:10:18.173Z,36.70
2023-01-20T16:12:48.069Z,37.43
2023-01-20T16:15:18.179Z,36.33
2023-01-20T16:17:45.967Z,37.23
2023-01-20T16:20:23.651Z,39.20
2023-01-20T16:22:52.022Z,39.30
2023-01-20T16:25:20.855Z,39.87
2023-01-20T16:27:48.363Z,40.57
2023-01-20T16:30:23.222Z,41.57
2023-01-20T16:32:51.269Z,40.87
2023-01-20T16:35:20.925Z,41.10
2023-01-20T16:37:49.734Z,41.30
2023-01-20T16:40:21.830Z,41.27
2023-01-20T16:42:49.260Z,41.03
2023-01-20T16:45:36.940Z,38.23
2023-01-20T16:48:04.637Z,39.83
2023-01-20T16:50:32.067Z,41.37
2023-01-20T16:52:59.497Z,42.90
2023-01-20T16:55:26.957Z,43.00
2023-01-20T16:57:54.460Z,43.77
2023-01-20T17:00:22.807Z,43.70
2023-01-20T17:02:53.995Z,45.13
2023-01-20T17:05:25.948Z,45.23
2023-01-20T17:07:58.174Z,45.37
2023-01-20T17:10:30.053Z,46.37
2023-01-20T17:12:57.934Z,47.73
2023-01-20T17:15:26.722Z,49.20
2023-01-20T17:17:58.473Z,49.27
2023-01-20T17:20:27.634Z,48.03
2023-01-20T17:22:55.946Z,53.30
2023-01-20T17:25:23.840Z,52.17
2023-01-20T17:27:51.383Z,50.57
2023-01-20T17:30:19.252Z,49.40
2023-01-20T17:32:51.116Z,49.60
2023-01-20T17:35:19.151Z,52.90
2023-01-20T17:37:46.629Z,52.57
2023-01-20T17:40:15.027Z,47.30
2023-01-20T17:42:44.228Z,46.60
2023-01-20T17:45:12.211Z,45.63
2023-01-20T17:47:39.669Z,46.73
2023-01-20T17:50:07.478Z,46.83
2023-01-20T17:52:34.861Z,46.57
2023-01-20T17:55:04.654Z,47.47
2023-01-20T17:57:32.820Z,45.77
2023-01-20T18:00:00.280Z,47.17
2023-01-20T18:02:27.748Z,46.07
2023-01-20T18:04:55.238Z,45.80
2023-01-20T18:07:22.659Z,43.93
2023-01-20T18:09:50.057Z,45.17
2023-01-20T18:12:17.505Z,44.83
2023-01-20T18:14:45.052Z,45.83
2023-01-20T18:17:12.481Z,43.83
2023-01-20T18:19:39.877Z,45.33
2023-01-20T18:22:10.396Z,47.53
2023-01-20T18:24:38.685Z,48.27
2023-01-20T18:27:06.721Z,46.13
2023-01-20T18:29:36.287Z,48.90
2023-01-20T18:32:05.090Z,46.33
2023-01-20T18:34:32.591Z,46.20
2023-01-20T18:37:01.459Z,49.27
2023-01-20T18:39:29.715Z,44.97
2023-01-20T18:41:57.121Z,43.30
2023-01-20T18:44:24.667Z,48.40
2023-01-20T18:46:52.207Z,47.90
2023-01-20T18:49:19.851Z,49.27
2023-01-20T18:51:47.351Z,49.37
2023-01-20T18:54:17.982Z,48.53
2023-01-20T18:56:45.619Z,49.70
2023-01-20T18:59:13.484Z,51.23
2023-01-20T19:01:42.185Z,50.90
2023-01-20T19:04:12.583Z,52.43
2023-01-20T19:06:42.850Z,52.10
2023-01-20T19:09:11.254Z,52.40
2023-01-20T19:11:41.784Z,51.87
2023-01-20T19:14:13.555Z,49.77
2023-01-20T19:16:45.493Z,50.37
2023-01-20T19:19:13.993Z,51.77
2023-01-20T19:21:42.797Z,50.70
2023-01-20T19:24:17.135Z,52.33
2023-01-20T19:26:44.604Z,50.37
2023-01-20T19:29:15.847Z,50.40
2023-01-20T19:31:43.595Z,52.00
2023-01-20T19:34:11.394Z,51.37
2023-01-20T19:36:39.161Z,49.43
2023-01-20T19:39:06.977Z,49.33
2023-01-20T19:41:36.253Z,45.50
2023-01-20T19:44:06.889Z,46.13
2023-01-20T19:46:37.647Z,45.57
2023-01-20T19:49:05.421Z,44.93
2023-01-20T19:51:32.972Z,48.03
2023-01-20T19:54:01.766Z,49.27
2023-01-20T19:56:32.762Z,48.87
2023-01-20T19:59:01.696Z,50.30
2023-01-20T20:01:32.704Z,53.43
2023-01-20T20:04:05.796Z,53.10
2023-01-20T20:06:37.261Z,57.13
2023-01-20T20:09:14.682Z,54.53
2023-01-20T20:11:43.343Z,57.20
2023-01-20T20:14:17.954Z,55.00
2023-01-20T20:16:46.183Z,53.43
2023-01-20T20:19:18.117Z,54.27
2023-01-20T20:21:46.124Z,53.33
2023-01-20T20:24:16.210Z,54.57
2023-01-20T20:26:46.230Z,54.43
2023-01-20T20:29:16.971Z,53.47
2023-01-20T20:31:44.592Z,52.67
2023-01-20T20:34:16.598Z,51.50
2023-01-20T20:36:44.506Z,52.20
2023-01-20T20:39:19.122Z,54.00
2023-01-20T20:41:47.067Z,50.47
2023-01-20T20:44:14.721Z,49.57
2023-01-20T20:46:43.584Z,53.37
2023-01-20T20:49:15.874Z,51.63
2023-01-20T20:51:44.046Z,47.73
2023-01-20T20:54:14.166Z,44.47
2023-01-20T20:56:41.660Z,45.37
2023-01-20T20:59:09.896Z,46.20
2023-01-20T21:01:37.958Z,45.00
2023-01-20T21:04:06.035Z,43.80
2023-01-20T21:06:34.156Z,45.13
2023-01-20T21:09:01.692Z,43.90
2023-01-20T21:11:29.585Z,43.13
2023-01-20T21:13:57.461Z,45.87
2023-01-20T21:16:26.332Z,45.07
2023-01-20T21:18:56.420Z,42.60
2023-01-20T21:21:25.164Z,44.00
2023-01-20T21:23:55.491Z,40.67
2023-01-20T21:26:25.660Z,39.50
2023-01-20T21:28:54.285Z,42.70
2023-01-20T21:31:26.210Z,42.20
2023-01-20T21:33:58.512Z,38.83
2023-01-20T21:36:27.540Z,39.60
2023-01-20T21:38:55.299Z,40.07
2023-01-20T21:41:22.821Z,40.83
2023-01-20T21:44:09.041Z,41.73
2023-01-20T21:46:40.289Z,38.43
2023-01-20T21:49:27.597Z,41.37
2023-01-20T21:52:14.877Z,38.47
2023-01-20T21:54:45.280Z,42.67
2023-01-20T21:57:14.401Z,39.57
2023-01-20T21:59:42.252Z,40.83
2023-01-20T22:02:13.473Z,40.50
2023-01-20T22:04:41.719Z,42.97
2023-01-20T22:07:10.590Z,44.50
2023-01-20T22:09:38.488Z,44.90
2023-01-20T22:12:06.403Z,44.03
2023-01-20T22:14:33.966Z,42.10
2023-01-20T22:17:01.643Z,40.50
2023-01-20T22:19:29.084Z,39.93
2023-01-20T22:21:57.074Z,39.20
2023-01-20T22:24:24.511Z,41.93
2023-01-20T22:26:52.464Z,39.83
2023-01-20T22:29:20.302Z,40.73
2023-01-20T22:31:51.442Z,37.23
2023-01-20T22:34:19.837Z,39.10
2023-01-20T22:36:47.530Z,37.30
2023-01-20T22:39:15.733Z,38.20
2023-01-20T22:41:43.305Z,34.40
2023-01-20T22:44:10.825Z,37.63
2023-01-20T22:46:38.303Z,36.30
2023-01-20T22:49:06.131Z,37.93
2023-01-20T22:51:33.647Z,39.00
2023-01-20T22:54:02.057Z,37.70
2023-01-20T22:56:32.759Z,37.37
2023-01-20T22:59:01.021Z,36.80
2023-01-20T23:01:32.591Z,35.23
2023-01-20T23:04:04.160Z,37.97
2023-01-20T23:06:34.319Z,38.47
2023-01-20T23:09:09.389Z,37.77
2023-01-20T23:11:38.499Z,36.93
2023-01-20T23:14:07.524Z,37.60
2023-01-20T23:16:35.052Z,37.67
2023-01-20T23:19:02.491Z,38.13
2023-01-20T23:21:30.065Z,39.00
2023-01-20T23:23:57.613Z,36.63
2023-01-20T23:26:28.556Z,36.27
2023-01-20T23:28:56.924Z,34.93
2023-01-20T23:31:28.571Z,39.60
2023-01-20T23:33:56.116Z,38.23
2023-01-20T23:36:26.318Z,36.33
2023-01-20T23:38:55.978Z,33.30
2023-01-20T23:41:23.782Z,34.87
2023-01-20T23:43:51.272Z,32.50
2023-01-20T23:46:18.983Z,32.77
2023-01-20T23:48:47.124Z,30.90
2023-01-20T23:51:15.067Z,32.63
2023-01-20T23:53:42.831Z,32.13
2023-01-20T23:56:25.164Z,32.27
2023-01-20T23:58:52.853Z,30.17
